Tiempo atmosférico en la estación meteorológica de Morales del Toro, Zamora (710 m.)



Fecha
DESCASC
Temp. máxima en grados centígrados (hora)
DESCASC
Temp. mínima en grados centígrados (hora)
DESCASC
Temp. media en grados centígrados
DESCASC
Racha de viento máxima en m/sg (hora)
DESCASC
Velocidad máxima media en intervalos de 10 minutos(hora)
DESCASC
Precipitaciones diarias en mm
DESCASC
Precipitaciones de 00:00 a 06:00 en mm
DESCASC
Precipitaciones de 06:00 a 12:00 en mm
DESCASC
Precipitaciones de 12:00 a 18:00 en mm
DESCASC
Precipitaciones de 18:00 a 24:00 en mm
DESCASC
16-04-2019 22.3 (19:20) 1.5 (07:30) 11.9 7.78 (16:20) 3.89 (16:20) 0 0 0 0 0
15-04-2019 21.2 (14:20) 8 (23:59) 14.6 18.89 (15:50) 14.72 (15:40) 0 0 0 0 0
14-04-2019 21.5 (18:20) 8.8 (08:30) 15.2 8.89 (14:20) 5.28 (16:50) 0 0 0 0 0
13-04-2019 22.3 (17:20) 1.6 (00:00) 11.9 9.17 (18:30) 6.11 (19:30) 0 0 0 0 0
12-04-2019 18.5 (18:50) 0.4 (07:50) 9.5 8.33 (00:10) 6.39 (00:10) 0 0 0 0 0
11-04-2019 15.8 (17:50) -1.4 (-00:0) 7.2 9.17 (23:59) 4.72 (18:10) 0 0 0 0 0
10-04-2019 14.5 (16:50) 2.6 (00:00) 8.5 11.67 (15:10) 8.06 (15:10) 0 0 0 0 0
09-04-2019 12.3 (17:20) 3.9 (00:00) 8.1 17.22 (11:40) 13.33 (11:40) 0.8 0 0.8 0 0
08-04-2019 14.3 (16:20) 5.9 (00:00) 10.1 14.72 (19:00) 11.94 (19:00) 0.8 0.8 0 0 0
07-04-2019 12.2 (15:00) 0.4 (00:00) 6.3 13.06 (17:00) 9.44 (17:00) 4.2 0.2 0 1.2 2.8
06-04-2019 10.4 (18:40) 1.7 (00:00) 6 19.17 (13:40) 15.28 (14:10) 0.4 0 0.4 0 0
05-04-2019 11 (17:40) 2.7 (00:00) 6.9 16.11 (19:50) 12.5 (19:50) 2.2 1.4 0.6 0.2 0
04-04-2019 11.9 (16:50) -3.7 (-00:0) 4.1 13.33 (19:10) 9.17 (17:30) 1.4 0 0 0 1.4
03-04-2019 13.1 (16:00) 1.9 (05:50) 7.5 13.33 (15:10) 9.17 (14:50) 0 0 0 0 0
02-04-2019 19.1 (18:00) 5.2 (00:00) 12.2 9.72 (16:20) 6.39 (20:20) 0 0 0 0 0
01-04-2019 20.2 (17:20) 2.2 (00:00) 11.2 8.06 (03:10) 6.11 (02:30) 0 0 0 0 0
31-03-2019 20.2 (16:40) 3.1 (00:00) 11.7 11.94 (20:40) 9.17 (19:00) 0 0 0 0 0
30-03-2019 21 (16:20) 4.4 (00:00) 12.7 7.22 (23:40) 5 (08:50) 0 0 0 0 0
29-03-2019 20.9 (16:40) 0.6 (00:00) 10.7 7.78 (15:10) 5 (00:50) 0 0 0 0 0
28-03-2019 19.4 (17:00) 2.3 (00:00) 10.8 13.33 (00:40) 10.28 (00:40) 0 0 0 0 0
27-03-2019 19.7 (15:50) 2 (00:00) 10.9 14.17 (00:40) 10.83 (00:50) 0 0 0 0 0
26-03-2019 18.3 (16:10) 2.8 (00:00) 10.5 17.5 (20:40) 12.78 (21:30) 0 0 0 0 0
25-03-2019 16.9 (15:40) 5.1 (00:00) 11 14.44 (18:30) 10.83 (02:30) 0 0 0 0 0
24-03-2019 21.6 (17:10) 3.6 (00:00) 12.6 10.83 (16:40) 7.78 (23:10) 0 0 0 0 0
23-03-2019 21.3 (16:20) 0.3 (00:00) 10.8 8.89 (14:20) 6.11 (21:40) 0 0 0 0 0
22-03-2019 19.1 (15:50) -1.3 (-00:0) 8.9 5.28 (15:20) 4.72 (23:00) 0 0 0 0 0
21-03-2019 16.9 (18:10) -1.9 (-00:0) 7.5 10.83 (01:10) 7.5 (00:40) 0 0 0 0 0
20-03-2019 13.7 (16:20) -0.2 (00:00) 6.7 12.5 (13:10) 8.33 (13:10) 0 0 0 0 0
19-03-2019 15.4 (16:10) 0.8 (00:00) 8.1 10.56 (22:00) 8.06 (22:00) 0 0 0 0 0

Gráficas

Temp. máximas Temp. mínimas Temp. medias Precipitaciones Rachas de viento máximas Velocidades máximas media en intervalos de 10 minutos

Datos horarios

Fecha y hora oficial Temperatura (ºC) Velocidad del viento (km/h) Dirección del viento Racha (km/h) Dirección de racha Precipitación (mm) Presión (hPa) Tendencia (hPa) Humedad (%)
2019-04-17 23:00:00 11.3 23 Noroeste 44 Noroeste 0 -- -- 73
2019-04-17 22:00:00 12 27 Noroeste 44 Noroeste 0 -- -- 76
2019-04-17 21:00:00 17.3 22 Oeste 51 Sudoeste 0 -- -- 46
2019-04-17 20:00:00 18.2 15 Sudoeste 39 Sudoeste 0 -- -- 41
2019-04-17 19:00:00 18.5 12 Oeste 41 Noroeste 0 -- -- 42
2019-04-17 18:00:00 19.7 25 Noroeste 47 Oeste 0 -- -- 37
2019-04-17 17:00:00 21.2 6 Oeste 12 Sudoeste 0 -- -- 36
2019-04-17 16:00:00 21.2 3 Sudoeste 13 Noroeste 0 -- -- 38
2019-04-17 15:00:00 20 6 Noroeste 19 Oeste 0 -- -- 41
2019-04-17 14:00:00 19.3 10 Noroeste 22 Noroeste 0 -- -- 44
2019-04-17 13:00:00 18.9 12 Sudoeste 32 Sudoeste 0 -- -- 45
2019-04-17 12:00:00 16.8 18 Sudoeste 34 Sur 0 -- -- 52
2019-04-17 11:00:00 14.4 26 Sur 39 Sur 0 -- -- 62
2019-04-17 10:00:00 13.2 24 Sudoeste 36 Sudoeste 0 -- -- 66
2019-04-17 09:00:00 10.3 13 Sur 19 Sur 0 -- -- 76
2019-04-17 08:00:00 9.4 12 Sur 20 Sur 0 -- -- 77
2019-04-17 07:00:00 9 14 Sur 21 Sur 0 -- -- 76
2019-04-17 06:00:00 9.1 8 Sudeste 14 Sudeste 0 -- -- 73
2019-04-17 05:00:00 8.9 5 Sur 22 Sur 0 -- -- 67
2019-04-17 04:00:00 10.3 15 Sur 25 Sur 0 -- -- 59
2019-04-17 03:00:00 7.7 12 Sudeste 17 Este 0 -- -- 71
2019-04-17 02:00:00 7.7 8 Este 17 Sudeste 0 -- -- 72
2019-04-17 01:00:00 9.7 10 Este 13 Este 0 -- -- 62
2019-04-17 00:00:00 10.8 5 Este 7 Norte 0 -- -- 57
2019-04-16 23:00:00 11.7 8 Norte 14 Norte 0 -- -- 56
2019-04-16 22:00:00 13.5 6 Este 12 Este 0 -- -- 54
2019-04-16 21:00:00 15.3 10 Este 14 Sudeste 0 -- -- 52
2019-04-16 20:00:00 19.7 8 Sudeste 13 Este 0 -- -- 35
2019-04-16 19:00:00 21 4 Norte 11 Sur 0 -- -- 30
2019-04-16 18:00:00 21.4 8 Sur 23 Oeste 0 -- -- 30
2019-04-16 17:00:00 20.6 11 Noroeste 28 Sur 0 -- -- 30
2019-04-16 16:00:00 20.9 13 Sudoeste 26 Sudoeste 0 -- -- 27
2019-04-16 15:00:00 19.4 12 Sur 24 Sur 0 -- -- 33
2019-04-16 14:00:00 18.1 9 Sur 20 Sudoeste 0 -- -- 43
2019-04-16 13:00:00 15.5 10 Sudoeste 21 Sur 0 -- -- 51
2019-04-16 12:00:00 13.9 6 Sur 17 Sur 0 -- -- 60
2019-04-16 11:00:00 11.7 8 Sur 14 Sudeste 0 -- -- 70
2019-04-16 10:00:00 7.4 4 Sudeste 9 Sudeste 0 -- -- 85
2019-04-16 09:00:00 4 4 Este 8 Sur 0 -- -- 94
2019-04-16 08:00:00 1.5 5 Este 12 Este 0 -- -- 96
2019-04-16 07:00:00 1.9 7 Este 9 Este 0 -- -- 96
2019-04-16 06:00:00 3.6 5 Noroeste 8 Noroeste 0 -- -- 96
2019-04-16 05:00:00 3.5 3 Sudoeste 9 Este 0 -- -- 95
2019-04-16 04:00:00 4.3 7 Nordeste 16 Norte 0 -- -- 92
2019-04-16 03:00:00 4.2 9 Norte 12 Norte 0 -- -- 91
2019-04-16 02:00:00 5.2 6 Norte 9 Norte 0 -- -- 87
2019-04-16 01:00:00 6.5 2 Nordeste 14 Noroeste 0 -- -- 86
2019-04-16 00:00:00 8 5 Noroeste 15 Norte 0 -- -- 81
2019-04-15 23:00:00 10.7 10 Noroeste 18 Norte 0 -- -- 76
2019-04-15 22:00:00 10.9 5 Noroeste 24 Noroeste 0 -- -- 77
2019-04-15 21:00:00 12.2 18 Noroeste 35 Noroeste 0 -- -- 68
2019-04-15 20:00:00 15.1 23 Noroeste 45 Noroeste 0 -- -- 55
2019-04-15 19:00:00 13.2 23 Noroeste 42 Noroeste 0 -- -- 67
2019-04-15 18:00:00 13.7 30 Noroeste 59 Noroeste 0 -- -- 55
2019-04-15 17:00:00 14.9 45 Norte 67 Norte 0 -- -- 53
2019-04-15 16:00:00 17 48 Norte 68 Noroeste 0 -- -- 55
2019-04-15 15:00:00 19.8 50 Noroeste 64 Noroeste 0 -- -- 39
2019-04-15 14:00:00 20 42 Noroeste 66 Noroeste 0 -- -- 49
2019-04-15 13:00:00 20.9 35 Oeste 53 Oeste 0 -- -- 51
2019-04-15 12:00:00 19.5 19 Oeste 31 Sudoeste 0 -- -- 58
2019-04-15 11:00:00 16 13 Sur 20 Sur 0 -- -- 72
2019-04-15 10:00:00 13.3 11 Sur 20 Sur 0 -- -- 79
2019-04-15 09:00:00 11.3 14 Sur 24 Sur 0 -- -- 86
2019-04-15 08:00:00 10.6 16 Sur 22 Sur 0 -- -- 88
2019-04-15 07:00:00 11 6 Sudeste 13 Sudeste 0 -- -- 88
2019-04-15 06:00:00 10.5 6 Sudeste 10 Sudeste 0 -- -- 88
2019-04-15 05:00:00 11.6 5 Sudeste 9 Sudeste 0 -- -- 84
2019-04-15 04:00:00 11.8 5 Sudeste 9 Sur 0 -- -- 85
2019-04-15 03:00:00 12.3 6 Sur 12 Sur 0 -- -- 84
2019-04-15 02:00:00 10.6 6 Este 10 Este 0 -- -- 86
2019-04-15 01:00:00 11.6 7 Este 10 Este 0 -- -- 84
2019-04-15 00:00:00 12.2 9 Este 9 Este 0 -- -- 81
2019-04-14 23:00:00 13.9 4 Este 8 Norte 0 -- -- 75
2019-04-14 22:00:00 15.2 4 Nordeste 9 Norte 0 -- -- 71
2019-04-14 21:00:00 17.6 9 Norte 22 Noroeste 0 -- -- 64
2019-04-14 20:00:00 19.2 18 Noroeste 22 Noroeste 0 -- -- 57
2019-04-14 19:00:00 20.8 16 Norte 23 Norte 0 -- -- 53
2019-04-14 18:00:00 20.2 13 Norte 23 Norte 0 -- -- 51
2019-04-14 17:00:00 20.3 17 Norte 29 Norte 0 -- -- 52
2019-04-14 16:00:00 20.5 15 Noroeste 26 Noroeste 0 -- -- 51
2019-04-14 15:00:00 21 14 Noroeste 32 Noroeste 0 -- -- 50
2019-04-14 14:00:00 20.4 12 Noroeste 23 Noroeste 0 -- -- 51
2019-04-14 13:00:00 18.9 6 Noroeste 20 Noroeste 0 -- -- 59
2019-04-14 12:00:00 16.5 9 Noroeste 20 Noroeste 0 -- -- 69
2019-04-14 11:00:00 14.4 14 Noroeste 24 Noroeste 0 -- -- 78
2019-04-14 10:00:00 12.8 4 Oeste 8 Oeste 0 -- -- 83
2019-04-14 09:00:00 10 3 Sur 8 Sur 0 -- -- 95
2019-04-14 08:00:00 9.1 3 Oeste 7 Noroeste 0 -- -- 95
2019-04-14 07:00:00 9.7 5 Noroeste 8 Oeste 0 -- -- 94
2019-04-14 06:00:00 9.9 0 Calma 15 Noroeste 0 -- -- 90
2019-04-14 05:00:00 11.3 10 Norte 16 Noroeste 0 -- -- 85
2019-04-14 04:00:00 12.2 13 Noroeste 22 Noroeste 0 -- -- 80
2019-04-14 03:00:00 12.6 13 Noroeste 20 Noroeste 0 -- -- 75
2019-04-14 02:00:00 12.5 13 Noroeste 23 Noroeste 0 -- -- 74
2019-04-14 01:00:00 13.4 14 Noroeste 21 Noroeste 0 -- -- 67
2019-04-14 00:00:00 13.9 6 Noroeste 20 Noroeste 0 -- -- 61
2019-04-13 23:00:00 14.8 12 Noroeste 17 Noroeste 0 -- -- 56
2019-04-13 22:00:00 14 8 Norte 16 Noroeste 0 -- -- 56
2019-04-13 21:00:00 16.2 12 Noroeste 27 Noroeste 0 -- -- 46
2019-04-13 20:00:00 18.5 19 Noroeste 30 Noroeste 0 -- -- 37
2019-04-13 19:00:00 21.1 15 Norte 33 Noroeste 0 -- -- 30
2019-04-13 18:00:00 21.8 14 Noroeste 28 Noroeste 0 -- -- 28
2019-04-13 17:00:00 21.9 6 Noroeste 22 Noroeste 0 -- -- 28
2019-04-13 16:00:00 20.8 9 Oeste 25 Sur 0 -- -- 30
2019-04-13 15:00:00 19.7 8 Noroeste 18 Sudoeste 0 -- -- 32
2019-04-13 14:00:00 19.3 5 Sudoeste 15 Oeste 0 -- -- 31
2019-04-13 13:00:00 17.3 6 Noroeste 15 Sudoeste 0 -- -- 37
2019-04-13 12:00:00 15.2 8 Sudoeste 20 Sudoeste 0 -- -- 47
2019-04-13 11:00:00 12.1 11 Sur 17 Sur 0 -- -- 52
2019-04-13 10:00:00 8.6 10 Sur 16 Sur 0 -- -- 66
2019-04-13 09:00:00 4.6 9 Sur 13 Sur 0 -- -- 76
2019-04-13 08:00:00 1.7 6 Sudeste 10 Sur 0 -- -- 87
2019-04-13 07:00:00 2.1 6 Este 12 Este 0 -- -- 83
2019-04-13 06:00:00 4.2 7 Sudeste 14 Sudeste 0 -- -- 75
2019-04-13 05:00:00 2 5 Sudeste 10 Sudeste 0 -- -- 81
2019-04-13 04:00:00 2.1 7 Sudeste 9 Este 0 -- -- 80
2019-04-13 03:00:00 3.1 9 Este 12 Este 0 -- -- 78
2019-04-13 02:00:00 4.4 7 Sudeste 10 Este 0 -- -- 74
2019-04-13 01:00:00 4.7 7 Este 12 Este 0 -- -- 75
2019-04-13 00:00:00 5.7 9 Este 12 Este 0 -- -- 71
2019-04-12 23:00:00 7.6 9 Este 12 Este 0 -- -- 66
2019-04-12 22:00:00 10.9 4 Este 6 Sudeste 0 -- -- 49
2019-04-12 21:00:00 12.7 5 Sudeste 9 Este 0 -- -- 44
2019-04-12 20:00:00 16.9 6 Nordeste 12 Este 0 -- -- 36
2019-04-12 19:00:00 17.7 6 Nordeste 15 Nordeste 0 -- -- 35
2019-04-12 18:00:00 17.4 5 Nordeste 19 Norte 0 -- -- 37
2019-04-12 17:00:00 16.4 11 Nordeste 21 Este 0 -- -- 39
2019-04-12 16:00:00 16.1 7 Sudeste 23 Este 0 -- -- 40
2019-04-12 15:00:00 15.2 9 Este 23 Nordeste 0 -- -- 45
2019-04-12 14:00:00 13.6 8 Nordeste 20 Norte 0 -- -- 51
2019-04-12 13:00:00 12.4 4 Este 17 Este 0 -- -- 56
2019-04-12 12:00:00 10.8 4 Este 10 Este 0 -- -- 57
2019-04-12 11:00:00 9.6 4 Sur 12 Sudeste 0 -- -- 67
2019-04-12 10:00:00 5.9 7 Sudeste 13 Este 0 -- -- 84
2019-04-12 09:00:00 1.8 6 Este 10 Este 0 -- -- 93
2019-04-12 08:00:00 0.5 6 Este 9 Este 0 -- -- 96
2019-04-12 07:00:00 0.6 8 Este 10 Este 0 -- -- 95
2019-04-12 06:00:00 1.5 4 Este 8 Este 0 -- -- 93
2019-04-12 05:00:00 2.6 3 Este 7 Este 0 -- -- 92
2019-04-12 04:00:00 3.5 3 Este 12 Sudeste 0 -- -- 90
2019-04-12 03:00:00 4.1 7 Este 13 Sudeste 0 -- -- 88
2019-04-12 02:00:00 5.2 10 Sudeste 27 Sudeste 0 -- -- 82
2019-04-12 01:00:00 4.5 14 Sudeste 30 Sudeste 0 -- -- 86
2019-04-12 00:00:00 6.7 17 Sudeste 33 Sudeste 0 -- -- 77
2019-04-11 23:00:00 6.9 5 Nordeste 7 Este 0 -- -- 67
2019-04-11 22:00:00 8.8 4 Este 6 Este 0 -- -- 59
2019-04-11 21:00:00 10.8 3 Sur 14 Sudeste 0 -- -- 52
2019-04-11 20:00:00 13.2 12 Sudeste 21 Este 0 -- -- 45
2019-04-11 19:00:00 13.4 11 Este 28 Este 0 -- -- 43
2019-04-11 18:00:00 15.6 13 Este 25 Este 0 -- -- 38
2019-04-11 17:00:00 15.1 8 Nordeste 24 Nordeste 0 -- -- 37
2019-04-11 16:00:00 14.5 10 Nordeste 31 Nordeste 0 -- -- 39
2019-04-11 15:00:00 14 10 Nordeste 24 Norte 0 -- -- 44
2019-04-11 14:00:00 13.1 8 Nordeste 18 Norte 0 -- -- 44
2019-04-11 13:00:00 11.7 7 Norte 15 Norte 0 -- -- 53
2019-04-11 12:00:00 10 5 Oeste 15 Noroeste 0 -- -- 64
2019-04-11 11:00:00 8.1 5 Noroeste 8 Noroeste 0 -- -- 72
2019-04-11 10:00:00 6 2 Norte 6 Este 0 -- -- 84
2019-04-11 09:00:00 1.9 5 Este 11 Este 0 -- -- 94
2019-04-11 08:00:00 -0.7 6 Este 9 Este 0 -- -- 95
2019-04-11 07:00:00 0.1 7 Este 10 Este 0 -- -- 94
2019-04-11 06:00:00 0.7 9 Este 10 Este 0 -- -- 95
2019-04-11 05:00:00 1.5 7 Este 10 Este 0 -- -- 95
2019-04-11 04:00:00 2.5 6 Este 7 Este 0 -- -- 93
2019-04-11 03:00:00 4.6 0 Calma 8 Sudeste 0 -- -- 89
2019-04-11 02:00:00 6.3 5 Sur 18 Sudeste 0 -- -- 83
2019-04-11 01:00:00 4.2 6 Sudeste 11 Sudeste 0 -- -- 93
2019-04-11 00:00:00 4 3 Oeste 14 Este 0 -- -- 88
2019-04-10 23:00:00 4.8 12 Este 14 Este 0 -- -- 88
2019-04-10 22:00:00 7 11 Este 13 Este 0 -- -- 83
2019-04-10 21:00:00 8.9 12 Este 21 Este 0 -- -- 69
2019-04-10 20:00:00 10.9 22 Este 34 Este 0 -- -- 64
2019-04-10 19:00:00 11.8 15 Este 30 Este 0 -- -- 62
2019-04-10 18:00:00 13.9 19 Nordeste 38 Este 0 -- -- 54
2019-04-10 17:00:00 13.2 23 Nordeste 37 Este 0 -- -- 56
2019-04-10 16:00:00 10.9 17 Norte 42 Norte 0 -- -- 66
2019-04-10 15:00:00 11.5 21 Nordeste 41 Norte 0 -- -- 59
2019-04-10 14:00:00 11.8 19 Norte 32 Norte 0 -- -- 59
2019-04-10 13:00:00 11.3 17 Norte 28 Norte 0 -- -- 58
2019-04-10 12:00:00 9.5 16 Noroeste 28 Norte 0 -- -- 69
2019-04-10 11:00:00 7.5 21 Noroeste 31 Noroeste 0 -- -- 79
2019-04-10 10:00:00 5.9 24 Noroeste 34 Noroeste 0 -- -- 88
2019-04-10 09:00:00 5 14 Noroeste 19 Noroeste 0 -- -- 92
2019-04-10 08:00:00 3.7 8 Noroeste 13 Norte 0 -- -- 96
2019-04-10 07:00:00 3.2 8 Norte 13 Norte 0 -- -- 96
2019-04-10 06:00:00 3.5 9 Norte 20 Noroeste 0 -- -- 95
2019-04-10 05:00:00 3.7 18 Noroeste 28 Noroeste 0 -- -- 94
2019-04-10 04:00:00 3.6 13 Noroeste 24 Noroeste 0 -- -- 94
2019-04-10 03:00:00 4.4 17 Noroeste 30 Noroeste 0 -- -- 92
2019-04-10 02:00:00 4.7 17 Noroeste 24 Noroeste 0 -- -- 92
2019-04-10 01:00:00 5.5 21 Noroeste 34 Noroeste 0 -- -- 89
2019-04-10 00:00:00 6.6 25 Noroeste 38 Noroeste 0 -- -- 86
2019-04-09 23:00:00 7 21 Noroeste 34 Noroeste 0 -- -- 82
2019-04-09 22:00:00 7 25 Noroeste 46 Norte 0 -- -- 82
2019-04-09 21:00:00 8.9 29 Noroeste 41 Noroeste 0 -- -- 69
2019-04-09 20:00:00 9.5 27 Noroeste 47 Noroeste 0 -- -- 65
2019-04-09 19:00:00 11.4 33 Noroeste 53 Noroeste 0 -- -- 57
2019-04-09 18:00:00 10.5 27 Noroeste 49 Noroeste 0 -- -- 63
2019-04-09 17:00:00 10.4 28 Norte 42 Norte 0 -- -- 64
2019-04-09 16:00:00 11.8 28 Norte 47 Noroeste 0 -- -- 53
2019-04-09 15:00:00 11.1 29 Noroeste 53 Noroeste 0 -- -- 62
2019-04-09 14:00:00 7.9 26 Noroeste 48 Noroeste 0 -- -- 79
2019-04-09 13:00:00 7.2 33 Noroeste 51 Noroeste 0 -- -- 83
2019-04-09 12:00:00 5.9 32 Noroeste 62 Noroeste 0.6 -- -- 90
2019-04-09 11:00:00 7.1 31 Noroeste 43 Noroeste 0 -- -- 84
2019-04-09 10:00:00 6.9 22 Noroeste 31 Noroeste 0 -- -- 84
2019-04-09 09:00:00 6.2 17 Noroeste 26 Noroeste 0 -- -- 88
2019-04-09 08:00:00 5.4 17 Oeste 31 Oeste 0.2 -- -- 90
2019-04-09 07:00:00 5.5 18 Oeste 26 Oeste 0 -- -- 87
2019-04-09 06:00:00 4.9 9 Oeste 16 Oeste 0 -- -- 91
2019-04-09 05:00:00 3.9 9 Sudoeste 14 Sudoeste 0 -- -- 90
2019-04-09 04:00:00 4.8 10 Oeste 26 Noroeste 0 -- -- 88
2019-04-09 03:00:00 5.1 15 Noroeste 23 Noroeste 0 -- -- 88
2019-04-09 02:00:00 5.4 15 Noroeste 24 Noroeste 0 -- -- 86
2019-04-09 01:00:00 5.4 9 Oeste 24 Noroeste 0 -- -- 85
2019-04-09 00:00:00 6.5 18 Noroeste 27 Noroeste 0 -- -- 82
2019-04-08 23:00:00 6.1 15 Noroeste 21 Noroeste 0 -- -- 80
2019-04-08 22:00:00 6.6 12 Noroeste 27 Noroeste 0 -- -- 82
2019-04-08 21:00:00 9 23 Noroeste 31 Noroeste 0 -- -- 69
2019-04-08 20:00:00 10.1 18 Noroeste 50 Noroeste 0 -- -- 64
2019-04-08 19:00:00 10.6 43 Noroeste 53 Noroeste 0 -- -- 59
2019-04-08 18:00:00 12 24 Noroeste 39 Noroeste 0 -- -- 57
2019-04-08 17:00:00 12.9 35 Noroeste 46 Noroeste 0 -- -- 57
2019-04-08 16:00:00 13.1 29 Noroeste 40 Noroeste 0 -- -- 53
2019-04-08 15:00:00 12.8 26 Noroeste 39 Noroeste 0 -- -- 52
2019-04-08 14:00:00 13 22 Noroeste 37 Noroeste 0 -- -- 56
2019-04-08 13:00:00 11.7 26 Norte 41 Noroeste 0 -- -- 56
2019-04-08 12:00:00 10.9 24 Noroeste 37 Noroeste 0 -- -- 66
2019-04-08 11:00:00 9.6 24 Noroeste 36 Noroeste 0 -- -- 76
2019-04-08 10:00:00 8.5 24 Noroeste 34 Noroeste 0 -- -- 86
2019-04-08 09:00:00 7.7 12 Norte 30 Noroeste 0 -- -- 91
2019-04-08 08:00:00 7.6 21 Noroeste 33 Norte 0 -- -- 91
2019-04-08 07:00:00 7.8 25 Noroeste 34 Noroeste 0 -- -- 93
2019-04-08 06:00:00 8.5 24 Noroeste 31 Noroeste 0 -- -- 94
2019-04-08 05:00:00 8 9 Oeste 17 Oeste 0.6 -- -- 95
2019-04-08 04:00:00 8.1 11 Oeste 26 Oeste 0.2 -- -- 93
2019-04-08 03:00:00 8.4 14 Oeste 27 Oeste 0 -- -- 90
2019-04-08 02:00:00 8.3 10 Oeste 23 Noroeste 0 -- -- 92
2019-04-08 01:00:00 8.6 17 Noroeste 26 Noroeste 0 -- -- 95
2019-04-08 00:00:00 7.8 13 Oeste 21 Sudoeste 0.2 -- -- 97
2019-04-07 23:00:00 6.8 15 Sudoeste 22 Sudoeste 0.6 -- -- 97
2019-04-07 22:00:00 6.4 13 Sudoeste 23 Sudoeste 0.6 -- -- 96
2019-04-07 21:00:00 6.7 10 Sur 21 Sur 0.2 -- -- 95
2019-04-07 20:00:00 6.6 11 Sudoeste 15 Sudoeste 0.4 -- -- 92
2019-04-07 19:00:00 6.6 6 Oeste 19 Oeste 0.8 -- -- 90
2019-04-07 18:00:00 6.7 13 Oeste 42 Noroeste 1.2 -- -- 89
2019-04-07 17:00:00 7.6 34 Noroeste 47 Noroeste 0 -- -- 81
2019-04-07 16:00:00 10.7 27 Noroeste 41 Noroeste 0 -- -- 59
2019-04-07 15:00:00 12.2 24 Noroeste 40 Noroeste 0 -- -- 49
2019-04-07 14:00:00 10.8 24 Noroeste 42 Noroeste 0 -- -- 52
2019-04-07 13:00:00 9.9 12 Noroeste 28 Norte 0 -- -- 57
2019-04-07 12:00:00 9 15 Noroeste 28 Norte 0 -- -- 62
2019-04-07 11:00:00 6.4 17 Noroeste 26 Noroeste 0 -- -- 78
2019-04-07 10:00:00 4.7 13 Noroeste 19 Noroeste 0 -- -- 90
2019-04-07 09:00:00 2.2 3 Noroeste 9 Noroeste 0 -- -- 95
2019-04-07 08:00:00 0.4 5 Norte 12 Norte 0 -- -- 97
2019-04-07 07:00:00 1 8 Noroeste 13 Norte 0 -- -- 96
2019-04-07 06:00:00 1.1 6 Norte 30 Noroeste 0 -- -- 95
2019-04-07 05:00:00 2.2 19 Noroeste 30 Noroeste 0 -- -- 94
2019-04-07 04:00:00 2.6 22 Noroeste 33 Noroeste 0 -- -- 92
2019-04-07 03:00:00 3 15 Noroeste 30 Noroeste 0 -- -- 92
2019-04-07 02:00:00 3.8 23 Noroeste 37 Noroeste 0.2 -- -- 88
2019-04-07 01:00:00 4.4 18 Norte 29 Noroeste 0 -- -- 86
2019-04-07 00:00:00 3.7 9 Noroeste 25 Noroeste 0 -- -- 84
2019-04-06 23:00:00 4.5 23 Noroeste 43 Norte 0 -- -- 78
2019-04-06 22:00:00 5.7 20 Noroeste 38 Norte 0 -- -- 68
2019-04-06 21:00:00 6.7 23 Norte 43 Norte 0 -- -- 65
2019-04-06 20:00:00 8.1 28 Norte 57 Norte 0 -- -- 56
2019-04-06 19:00:00 8.4 42 Noroeste 60 Noroeste 0 -- -- 60
2019-04-06 18:00:00 8.5 43 Noroeste 67 Noroeste 0 -- -- 60
2019-04-06 17:00:00 7.5 50 Noroeste 67 Noroeste 0 -- -- 67
2019-04-06 16:00:00 7.8 48 Noroeste 69 Norte 0 -- -- 68
2019-04-06 15:00:00 6.7 50 Noroeste 67 Noroeste 0 -- -- 73
2019-04-06 14:00:00 6.8 43 Noroeste 69 Noroeste 0 -- -- 73
2019-04-06 13:00:00 6 45 Noroeste 69 Noroeste 0 -- -- 75
2019-04-06 12:00:00 5.7 43 Noroeste 57 Noroeste 0 -- -- 76
2019-04-06 11:00:00 5.1 39 Noroeste 57 Noroeste 0.2 -- -- 79
2019-04-06 10:00:00 4.6 33 Noroeste 45 Noroeste 0 -- -- 82
2019-04-06 09:00:00 3.3 26 Noroeste 36 Noroeste 0 -- -- 90
2019-04-06 08:00:00 3.3 21 Noroeste 34 Noroeste 0 -- -- 91
2019-04-06 07:00:00 3.4 24 Noroeste 33 Oeste 0.2 -- -- 92
2019-04-06 06:00:00 3.3 15 Oeste 28 Oeste 0 -- -- 87
2019-04-06 05:00:00 3 16 Noroeste 27 Noroeste 0 -- -- 88
2019-04-06 04:00:00 2.1 19 Noroeste 25 Noroeste 0 -- -- 92
2019-04-06 03:00:00 2.6 24 Noroeste 32 Noroeste 0 -- -- 91
2019-04-06 02:00:00 2.6 19 Noroeste 25 Noroeste 0 -- -- 91
2019-04-06 01:00:00 1.9 11 Noroeste 22 Noroeste 0 -- -- 92
2019-04-06 00:00:00 2.7 18 Noroeste 30 Noroeste 0 -- -- 91
2019-04-05 23:00:00 3.8 22 Noroeste 35 Noroeste 0 -- -- 85
2019-04-05 22:00:00 4.4 20 Noroeste 32 Noroeste 0 -- -- 81
2019-04-05 21:00:00 4.7 18 Noroeste 48 Noroeste 0 -- -- 77
2019-04-05 20:00:00 6.3 44 Noroeste 58 Noroeste 0 -- -- 70
2019-04-05 19:00:00 9.7 18 Noroeste 39 Noroeste 0 -- -- 47
2019-04-05 18:00:00 8.6 18 Norte 36 Norte 0 -- -- 59
2019-04-05 17:00:00 9.1 23 Noroeste 38 Noroeste 0 -- -- 53
2019-04-05 16:00:00 8.7 21 Noroeste 33 Noroeste 0 -- -- 58
2019-04-05 15:00:00 7.3 22 Noroeste 37 Noroeste 0.2 -- -- 62
2019-04-05 14:00:00 7.7 20 Noroeste 32 Noroeste 0 -- -- 64
2019-04-05 13:00:00 7.8 20 Noroeste 30 Noroeste 0 -- -- 67
2019-04-05 12:00:00 6.7 15 Noroeste 25 Noroeste 0 -- -- 70
2019-04-05 11:00:00 4.8 17 Noroeste 24 Noroeste 0 -- -- 80
2019-04-05 10:00:00 4.2 15 Noroeste 31 Noroeste 0 -- -- 81
2019-04-05 09:00:00 3.5 24 Noroeste 31 Noroeste 0 -- -- 90
2019-04-05 08:00:00 3.1 7 Noroeste 28 Noroeste 0 -- -- 94
2019-04-05 07:00:00 3.6 22 Noroeste 49 Noroeste 0.6 -- -- 92
2019-04-05 06:00:00 4.8 15 Oeste 30 Oeste 0 -- -- 92
2019-04-05 05:00:00 4.8 16 Oeste 26 Noroeste 0 -- -- 91
2019-04-05 04:00:00 4.6 16 Oeste 27 Oeste 0.2 -- -- 93
2019-04-05 03:00:00 4.3 16 Oeste 30 Oeste 1.2 -- -- 93
2019-04-05 02:00:00 4.7 14 Sudoeste 23 Sudoeste 0 -- -- 90
2019-04-05 01:00:00 4.6 12 Sudoeste 23 Sudoeste 0 -- -- 92
2019-04-05 00:00:00 4.8 9 Sudoeste 14 Oeste 0 -- -- 93
2019-04-04 23:00:00 4.6 6 Sudoeste 17 Oeste 0.6 -- -- 93
2019-04-04 22:00:00 4.9 8 Oeste 18 Noroeste 0.4 -- -- 89
2019-04-04 21:00:00 5.3 10 Noroeste 33 Noroeste 0.4 -- -- 83
2019-04-04 20:00:00 6.7 15 Noroeste 48 Noroeste 0 -- -- 67
2019-04-04 19:00:00 8.4 23 Norte 41 Norte 0 -- -- 49
2019-04-04 18:00:00 9.6 28 Noroeste 44 Noroeste 0 -- -- 41
2019-04-04 17:00:00 11.6 28 Noroeste 44 Noroeste 0 -- -- 39
2019-04-04 16:00:00 10.9 26 Noroeste 45 Noroeste 0 -- -- 37
2019-04-04 15:00:00 10.4 23 Noroeste 39 Noroeste 0 -- -- 39
2019-04-04 14:00:00 9.6 19 Oeste 33 Oeste 0 -- -- 43
2019-04-04 13:00:00 8.9 14 Noroeste 26 Oeste 0 -- -- 46
2019-04-04 12:00:00 7 15 Noroeste 23 Noroeste 0 -- -- 45
2019-04-04 11:00:00 5.6 14 Noroeste 23 Noroeste 0 -- -- 57
2019-04-04 10:00:00 2.9 15 Noroeste 21 Noroeste 0 -- -- 69
2019-04-04 09:00:00 -0.8 2 Oeste 10 Noroeste 0 -- -- 82
2019-04-04 08:00:00 -3.4 7 Noroeste 9 Noroeste 0 -- -- 88
2019-04-04 07:00:00 -3.5 0 Calma 11 Noroeste 0 -- -- 87
2019-04-04 06:00:00 -2.3 6 Noroeste 15 Norte 0 -- -- 81
2019-04-04 05:00:00 -2.1 8 Noroeste 10 Noroeste 0 -- -- 78
2019-04-04 04:00:00 -1.7 6 Norte 13 Norte 0 -- -- 76
2019-04-04 03:00:00 -0.5 11 Norte 14 Norte 0 -- -- 74
2019-04-04 02:00:00 0.4 13 Nordeste 23 Nordeste 0 -- -- 71
2019-04-04 01:00:00 1.9 19 Nordeste 26 Nordeste 0 -- -- 66
2019-04-04 00:00:00 3.1 24 Nordeste 33 Nordeste 0 -- -- 60
2019-04-03 23:00:00 4.2 24 Nordeste 36 Nordeste 0 -- -- 55
2019-04-03 22:00:00 5 19 Nordeste 36 Nordeste 0 -- -- 49
2019-04-03 21:00:00 6.6 19 Nordeste 40 Nordeste 0 -- -- 44
2019-04-03 20:00:00 9.7 28 Nordeste 40 Nordeste 0 -- -- 37
2019-04-03 19:00:00 11.4 25 Nordeste 44 Nordeste 0 -- -- 38
2019-04-03 18:00:00 12.5 32 Norte 46 Norte 0 -- -- 31
2019-04-03 17:00:00 12 27 Nordeste 45 Nordeste 0 -- -- 33
2019-04-03 16:00:00 13.1 27 Norte 48 Nordeste 0 -- -- 31
2019-04-03 15:00:00 12.2 33 Norte 47 Norte 0 -- -- 31
2019-04-03 14:00:00 11.5 26 Norte 43 Norte 0 -- -- 38
2019-04-03 13:00:00 10.8 27 Nordeste 46 Nordeste 0 -- -- 39
2019-04-03 12:00:00 9.8 24 Nordeste 41 Norte 0 -- -- 43
2019-04-03 11:00:00 8.2 21 Nordeste 31 Nordeste 0 -- -- 53
2019-04-03 10:00:00 6 11 Norte 22 Norte 0 -- -- 66
2019-04-03 09:00:00 5.2 12 Norte 18 Norte 0 -- -- 76
2019-04-03 08:00:00 3.8 5 Norte 13 Norte 0 -- -- 80
2019-04-03 07:00:00 3.1 8 Norte 11 Norte 0 -- -- 83
2019-04-03 06:00:00 2.2 8 Norte 9 Norte 0 -- -- 86
2019-04-03 05:00:00 2.4 6 Norte 11 Norte 0 -- -- 83
2019-04-03 04:00:00 3.1 9 Norte 10 Norte 0 -- -- 82
2019-04-03 03:00:00 3.9 2 Noroeste 6 Este 0 -- -- 80
2019-04-03 02:00:00 5.6 8 Este 20 Nordeste 0 -- -- 73
2019-04-03 01:00:00 6.5 15 Nordeste 21 Nordeste 0 -- -- 67
2019-04-03 00:00:00 7.4 12 Nordeste 19 Nordeste 0 -- -- 63
2019-04-02 23:00:00 9.3 13 Nordeste 24 Norte 0 -- -- 56
2019-04-02 22:00:00 12.2 22 Norte 33 Norte 0 -- -- 47
2019-04-02 21:00:00 14.4 21 Noroeste 34 Noroeste 0 -- -- 39
2019-04-02 20:00:00 16.1 21 Noroeste 29 Noroeste 0 -- -- 37
2019-04-02 19:00:00 18.4 22 Norte 31 Norte 0 -- -- 34
2019-04-02 18:00:00 19.1 17 Norte 27 Noroeste 0 -- -- 35
2019-04-02 17:00:00 18.3 18 Norte 35 Norte 0 -- -- 36
2019-04-02 16:00:00 17.9 19 Norte 31 Norte 0 -- -- 42
2019-04-02 15:00:00 16.7 15 Norte 24 Norte 0 -- -- 46
2019-04-02 14:00:00 15.5 13 Norte 24 Noroeste 0 -- -- 55
2019-04-02 13:00:00 13.6 12 Noroeste 18 Noroeste 0 -- -- 61
2019-04-02 12:00:00 11.2 10 Noroeste 17 Noroeste 0 -- -- 67
2019-04-02 11:00:00 9.1 8 Noroeste 13 Noroeste 0 -- -- 75
2019-04-02 10:00:00 7.9 4 Oeste 7 Oeste 0 -- -- 82
2019-04-02 09:00:00 5.8 2 Sudoeste 6 Sudoeste 0 -- -- 86
2019-04-02 08:00:00 5.2 3 Este 6 Este 0 -- -- 86
2019-04-02 07:00:00 5.6 2 Noroeste 5 Noroeste 0 -- -- 84
2019-04-02 06:00:00 5.2 0 Calma 9 Este 0 -- -- 85
2019-04-02 05:00:00 6 4 Oeste 6 Sudoeste 0 -- -- 82
2019-04-02 04:00:00 6 2 Noroeste 5 Oeste 0 -- -- 78
2019-04-02 03:00:00 6.5 2 Nordeste 10 Nordeste 0 -- -- 75
2019-04-02 02:00:00 7.7 8 Nordeste 13 Nordeste 0 -- -- 73
2019-04-02 01:00:00 8.7 4 Este 10 Noroeste 0 -- -- 70
2019-04-02 00:00:00 8.7 6 Norte 14 Norte 0 -- -- 70
2019-04-01 23:00:00 10.1 14 Norte 23 Norte 0 -- -- 60
2019-04-01 22:00:00 11 5 Este 8 Este 0 -- -- 51
2019-04-01 21:00:00 14.3 4 Nordeste 5 Nordeste 0 -- -- 39
2019-04-01 20:00:00 17.5 3 Nordeste 21 Nordeste 0 -- -- 33
2019-04-01 19:00:00 19.7 4 Sudeste 18 Noroeste 0 -- -- 30
2019-04-01 18:00:00 18.5 9 Norte 23 Nordeste 0 -- -- 33
2019-04-01 17:00:00 18.6 6 Norte 17 Nordeste 0 -- -- 35
2019-04-01 16:00:00 18.1 10 Norte 24 Norte 0 -- -- 36
2019-04-01 15:00:00 17.7 6 Oeste 14 Norte 0 -- -- 41
2019-04-01 14:00:00 16.3 6 Este 17 Sudeste 0 -- -- 46
2019-04-01 13:00:00 15.7 6 Sudeste 17 Sudeste 0 -- -- 48
2019-04-01 12:00:00 13.2 10 Este 18 Este 0 -- -- 54
2019-04-01 11:00:00 10.6 7 Sudeste 16 Sudeste 0 -- -- 70
2019-04-01 10:00:00 7.6 6 Este 18 Sudeste 0 -- -- 80
2019-04-01 09:00:00 6 12 Sudeste 18 Sudeste 0 -- -- 84
2019-04-01 08:00:00 2.5 6 Este 13 Este 0 -- -- 93
2019-04-01 07:00:00 3.3 12 Este 18 Este 0 -- -- 91
2019-04-01 06:00:00 3.7 10 Este 20 Sudeste 0 -- -- 90
2019-04-01 05:00:00 4.9 17 Sudeste 22 Sudeste 0 -- -- 85
2019-04-01 04:00:00 5.4 15 Sudeste 29 Sur 0 -- -- 83
2019-04-01 03:00:00 7 20 Sudeste 28 Sudeste 0 -- -- 76
2019-04-01 02:00:00 6.1 11 Sudeste 19 Sudeste 0 -- -- 80
2019-04-01 01:00:00 7.9 13 Sudeste 28 Sur 0 -- -- 74
2019-04-01 00:00:00 9.5 19 Sur 27 Sudeste 0 -- -- 71
2019-03-31 23:00:00 11 18 Sur 36 Sur 0 -- -- 68
2019-03-31 22:00:00 13 20 Sur 38 Sur 0 -- -- 58
2019-03-31 21:00:00 13.8 26 Sudeste 43 Sudeste 0 -- -- 51
2019-03-31 20:00:00 15.5 24 Sudeste 38 Sudeste 0 -- -- 40
2019-03-31 19:00:00 16.1 33 Sudeste 40 Sudeste 0 -- -- 40
2019-03-31 18:00:00 17.9 17 Sudeste 32 Sudeste 0 -- -- 33
2019-03-31 17:00:00 20 19 Sudeste 33 Sudeste 0 -- -- 31
2019-03-31 16:00:00 18 10 Sudeste 29 Sudeste 0 -- -- 36
2019-03-31 15:00:00 18.2 15 Sudeste 32 Sudeste 0 -- -- 36
2019-03-31 14:00:00 18.1 11 Sudeste 29 Este 0 -- -- 40
2019-03-31 13:00:00 16.6 6 Este 15 Este 0 -- -- 41
2019-03-31 12:00:00 14.7 5 Sur 14 Sur 0 -- -- 44
2019-03-31 11:00:00 12.7 6 Sudeste 14 Sudeste 0 -- -- 49
2019-03-31 10:00:00 10.3 6 Sudeste 12 Este 0 -- -- 56
2019-03-31 09:00:00 5.3 4 Este 7 Sudeste 0 -- -- 67
2019-03-31 08:00:00 3.1 2 Sudeste 6 Nordeste 0 -- -- 71
2019-03-31 07:00:00 4.2 5 Este 8 Este 0 -- -- 66
2019-03-31 06:00:00 5.3 4 Sudeste 15 Sudeste 0 -- -- 60
2019-03-31 05:00:00 5.8 11 Sudeste 20 Sudeste 0 -- -- 61
2019-03-31 03:00:00 5.9 13 Este 18 Este 0 -- -- 67
2019-03-31 01:00:00 7.3 13 Este 16 Este 0 -- -- 60
2019-03-31 00:00:00 9.1 4 Sudeste 26 Sur 0 -- -- 52
2019-03-30 23:00:00 8.4 14 Este 17 Este 0 -- -- 59
2019-03-30 22:00:00 9.4 14 Este 17 Este 0 -- -- 54
2019-03-30 21:00:00 10.4 12 Este 13 Este 0 -- -- 53
2019-03-30 20:00:00 12.4 10 Este 13 Este 0 -- -- 46
2019-03-30 19:00:00 17.3 8 Este 19 Sudeste 0 -- -- 32
2019-03-30 18:00:00 18.9 6 Este 21 Sudeste 0 -- -- 25
2019-03-30 17:00:00 17.8 9 Sudeste 19 Sudeste 0 -- -- 27
2019-03-30 16:00:00 19.1 7 Sur 18 Sudeste 0 -- -- 24
2019-03-30 15:00:00 20.2 4 Sudeste 18 Sur 0 -- -- 25
2019-03-30 14:00:00 19.1 6 Oeste 15 Norte 0 -- -- 27
2019-03-30 13:00:00 17.8 5 Norte 17 Noroeste 0 -- -- 32
2019-03-30 12:00:00 16.7 5 Oeste 13 Sudoeste 0 -- -- 35
2019-03-30 11:00:00 14 9 Sur 22 Sur 0 -- -- 45
2019-03-30 10:00:00 10.8 15 Sur 23 Sur 0 -- -- 55
2019-03-30 09:00:00 7.9 17 Sur 24 Sur 0 -- -- 63
2019-03-30 08:00:00 6.4 13 Sur 19 Sur 0 -- -- 67
2019-03-30 07:00:00 5.5 14 Sur 20 Sur 0 -- -- 69
2019-03-30 06:00:00 5.7 13 Sur 19 Sur 0 -- -- 67
2019-03-30 05:00:00 4.8 11 Sur 19 Sur 0 -- -- 64
2019-03-30 04:00:00 4.6 5 Sur 15 Sur 0 -- -- 57
2019-03-30 03:00:00 5.2 3 Sudeste 14 Sur 0 -- -- 55
2019-03-30 02:00:00 6.1 8 Sur 12 Sur 0 -- -- 50
2019-03-30 01:00:00 7.6 4 Sudeste 9 Sur 0 -- -- 44
2019-03-30 00:00:00 7.9 5 Sur 12 Sur 0 -- -- 43
2019-03-29 23:00:00 9.2 7 Sur 10 Sudoeste 0 -- -- 40
2019-03-29 22:00:00 11.4 10 Sudoeste 17 Sudoeste 0 -- -- 36
2019-03-29 21:00:00 12 4 Sudoeste 6 Sur 0 -- -- 36
2019-03-29 20:00:00 14.5 4 Sudoeste 10 Sudeste 0 -- -- 31
2019-03-29 19:00:00 19.3 7 Sur 11 Sur 0 -- -- 25
2019-03-29 18:00:00 20.1 3 Sudoeste 18 Norte 0 -- -- 26
2019-03-29 17:00:00 20 11 Noroeste 24 Norte 0 -- -- 28
2019-03-29 16:00:00 19.6 11 Noroeste 28 Noroeste 0 -- -- 28
2019-03-29 15:00:00 19.4 14 Noroeste 23 Noroeste 0 -- -- 28
2019-03-29 14:00:00 18 6 Norte 22 Oeste 0 -- -- 29
2019-03-29 13:00:00 17.1 11 Oeste 20 Oeste 0 -- -- 28
2019-03-29 12:00:00 14.8 9 Oeste 15 Oeste 0 -- -- 41
2019-03-29 11:00:00 11.7 5 Oeste 11 Sudoeste 0 -- -- 47
2019-03-29 10:00:00 9 5 Sudoeste 10 Sur 0 -- -- 55
2019-03-29 09:00:00 5.6 2 Sudeste 8 Este 0 -- -- 69
2019-03-29 08:00:00 1.4 5 Este 12 Este 0 -- -- 85
2019-03-29 07:00:00 0.8 10 Este 13 Este 0 -- -- 88
2019-03-29 06:00:00 1.3 8 Este 9 Este 0 -- -- 87
2019-03-29 05:00:00 2.1 7 Este 8 Este 0 -- -- 85
2019-03-29 04:00:00 3.2 0 Calma 6 Sudeste 0 -- -- 81
2019-03-29 03:00:00 4.2 4 Este 13 Este 0 -- -- 78
2019-03-29 02:00:00 4.9 11 Este 19 Este 0 -- -- 76
2019-03-29 01:00:00 6.2 18 Sudeste 22 Este 0 -- -- 68
2019-03-29 00:00:00 8.5 4 Este 24 Este 0 -- -- 61
2019-03-28 23:00:00 7.5 19 Este 26 Este 0 -- -- 65
2019-03-28 22:00:00 6.5 18 Sudeste 22 Este 0 -- -- 64
2019-03-28 21:00:00 8.2 16 Este 21 Este 0 -- -- 58
2019-03-28 20:00:00 11.8 11 Este 13 Este 0 -- -- 48
2019-03-28 19:00:00 16.9 14 Sudeste 24 Sudeste 0 -- -- 34
2019-03-28 18:00:00 18.1 15 Sudeste 25 Sur 0 -- -- 29
2019-03-28 17:00:00 19.4 12 Sur 26 Sudeste 0 -- -- 29
2019-03-28 16:00:00 17.8 13 Este 27 Sudeste 0 -- -- 34
2019-03-28 15:00:00 17.2 14 Sudeste 28 Sudeste 0 -- -- 34
2019-03-28 14:00:00 16.5 16 Sudeste 31 Sur 0 -- -- 31
2019-03-28 13:00:00 15.6 16 Sudeste 28 Sudeste 0 -- -- 34
2019-03-28 12:00:00 14.2 22 Sur 33 Sur 0 -- -- 37
2019-03-28 11:00:00 11.2 23 Sudeste 34 Sudeste 0 -- -- 46
2019-03-28 10:00:00 9 27 Sudeste 36 Sudeste 0 -- -- 56
2019-03-28 09:00:00 6 28 Sudeste 37 Sudeste 0 -- -- 66
2019-03-28 08:00:00 3.1 13 Sudeste 27 Sudeste 0 -- -- 72
2019-03-28 07:00:00 2.7 10 Sudeste 24 Sudeste 0 -- -- 69
2019-03-28 06:00:00 3.1 18 Sudeste 25 Sudeste 0 -- -- 59
2019-03-28 05:00:00 2.3 4 Sudeste 37 Sudeste 0 -- -- 59
2019-03-28 04:00:00 4.1 17 Sur 31 Sur 0 -- -- 51
2019-03-28 03:00:00 5 8 Nordeste 37 Sudeste 0 -- -- 45
2019-03-28 02:00:00 5.9 33 Sudeste 44 Sudeste 0 -- -- 41
2019-03-28 01:00:00 6.5 33 Sudeste 48 Sudeste 0 -- -- 38
2019-03-28 00:00:00 6.8 33 Sudeste 46 Sudeste 0 -- -- 45
2019-03-27 23:00:00 8.3 36 Sudeste 46 Sudeste 0 -- -- 41
2019-03-27 22:00:00 9.3 28 Sudeste 41 Sudeste 0 -- -- 41
2019-03-27 21:00:00 10.7 35 Sudeste 48 Sudeste 0 -- -- 36
2019-03-27 20:00:00 12.4 29 Sudeste 42 Sudeste 0 -- -- 29
2019-03-27 19:00:00 16.1 32 Sudeste 44 Sudeste 0 -- -- 24
2019-03-27 18:00:00 18.7 25 Sudeste 41 Sudeste 0 -- -- 20
2019-03-27 17:00:00 19.5 24 Sudeste 39 Sudeste 0 -- -- 20
2019-03-27 16:00:00 19.6 22 Sudeste 40 Sur 0 -- -- 21
2019-03-27 15:00:00 18.7 24 Sudeste 38 Este 0 -- -- 19
2019-03-27 14:00:00 17.2 23 Sudeste 35 Sudeste 0 -- -- 23
2019-03-27 13:00:00 16.1 19 Sudeste 34 Sudeste 0 -- -- 28
2019-03-27 12:00:00 13.6 17 Sudeste 28 Sudeste 0 -- -- 35
2019-03-27 11:00:00 11.3 17 Sudeste 28 Sudeste 0 -- -- 41
2019-03-27 10:00:00 8.9 22 Sudeste 35 Sudeste 0 -- -- 49
2019-03-27 09:00:00 6.4 22 Sudeste 32 Sudeste 0 -- -- 57
2019-03-27 08:00:00 4.2 24 Sudeste 30 Sudeste 0 -- -- 62
2019-03-27 07:00:00 2.2 3 Este 24 Sudeste 0 -- -- 70
2019-03-27 06:00:00 3.5 22 Sudeste 32 Sudeste 0 -- -- 64
2019-03-27 05:00:00 2.9 18 Sudeste 35 Sudeste 0 -- -- 65
2019-03-27 04:00:00 3.9 21 Sudeste 38 Sudeste 0 -- -- 60
2019-03-27 03:00:00 4 30 Sudeste 45 Sudeste 0 -- -- 54
2019-03-27 02:00:00 4.1 24 Sudeste 45 Sudeste 0 -- -- 47
2019-03-27 01:00:00 5.5 37 Sudeste 51 Sudeste 0 -- -- 44
2019-03-27 00:00:00 6.5 38 Sudeste 53 Sudeste 0 -- -- 37
2019-03-26 23:00:00 7.2 40 Sudeste 53 Sudeste 0 -- -- 31
2019-03-26 22:00:00 8.3 41 Sudeste 61 Sudeste 0 -- -- 29
2019-03-26 21:00:00 10.4 44 Sudeste 63 Sudeste 0 -- -- 27
2019-03-26 20:00:00 11.3 35 Sudeste 54 Sudeste 0 -- -- 28
2019-03-26 19:00:00 15.1 36 Sudeste 52 Sudeste 0 -- -- 24
2019-03-26 18:00:00 17.4 39 Sudeste 52 Sudeste 0 -- -- 21
2019-03-26 17:00:00 18.1 39 Sudeste 55 Sudeste 0 -- -- 21
2019-03-26 16:00:00 18 37 Sudeste 49 Sudeste 0 -- -- 24
2019-03-26 15:00:00 17 41 Sudeste 57 Sudeste 0 -- -- 26
2019-03-26 14:00:00 15.9 32 Sudeste 47 Sudeste 0 -- -- 28
2019-03-26 13:00:00 13.9 36 Sudeste 50 Sudeste 0 -- -- 32
2019-03-26 12:00:00 12.5 31 Sudeste 50 Sudeste 0 -- -- 37
2019-03-26 11:00:00 9.9 32 Sudeste 48 Sudeste 0 -- -- 47
2019-03-26 10:00:00 7.8 32 Sudeste 50 Sudeste 0 -- -- 56
2019-03-26 09:00:00 5.8 41 Sudeste 51 Sudeste 0 -- -- 64
2019-03-26 08:00:00 4.2 31 Sudeste 41 Sudeste 0 -- -- 74
2019-03-26 07:00:00 3.7 30 Sudeste 38 Sudeste 0 -- -- 77
2019-03-26 06:00:00 3.8 18 Sudeste 27 Sudeste 0 -- -- 77
2019-03-26 05:00:00 3.3 12 Sudeste 21 Sudeste 0 -- -- 78
2019-03-26 04:00:00 3.1 18 Sudeste 31 Este 0 -- -- 76
2019-03-26 03:00:00 3.2 15 Sudeste 37 Sudeste 0 -- -- 72
2019-03-26 02:00:00 3.8 26 Sudeste 41 Sudeste 0 -- -- 68
2019-03-26 01:00:00 4.5 22 Sudeste 41 Sudeste 0 -- -- 64
2019-03-26 00:00:00 5.1 21 Sudeste 44 Este 0 -- -- 63
2019-03-25 23:00:00 6.1 31 Este 43 Este 0 -- -- 59
2019-03-25 22:00:00 7.1 33 Sudeste 50 Sudeste 0 -- -- 57
2019-03-25 21:00:00 8.5 23 Sudeste 40 Sudeste 0 -- -- 50
2019-03-25 20:00:00 9.7 27 Sudeste 48 Sudeste 0 -- -- 48
2019-03-25 19:00:00 12.5 39 Este 52 Sudeste 0 -- -- 47
2019-03-25 18:00:00 14.9 34 Sudeste 45 Este 0 -- -- 41
2019-03-25 17:00:00 15.9 34 Sudeste 45 Sudeste 0 -- -- 40
2019-03-25 16:00:00 16.8 28 Este 40 Este 0 -- -- 39
2019-03-25 15:00:00 16.3 27 Sudeste 44 Sudeste 0 -- -- 38
2019-03-25 14:00:00 16.5 24 Sudeste 45 Sudeste 0 -- -- 40
2019-03-25 13:00:00 15.2 24 Sudeste 40 Este 0 -- -- 42
2019-03-25 12:00:00 13.5 30 Sudeste 44 Sudeste 0 -- -- 50
2019-03-25 11:00:00 11.7 33 Sudeste 49 Este 0 -- -- 59
2019-03-25 10:00:00 10.1 36 Este 48 Este 0 -- -- 64
2019-03-25 09:00:00 8.3 33 Este 46 Este 0 -- -- 70
2019-03-25 08:00:00 6.4 29 Este 38 Este 0 -- -- 69
2019-03-25 07:00:00 5.5 24 Este 35 Este 0 -- -- 70
2019-03-25 06:00:00 6.6 24 Este 37 Este 0 -- -- 65
2019-03-25 05:00:00 6 16 Este 23 Este 0 -- -- 68
2019-03-25 04:00:00 8.1 23 Este 41 Este 0 -- -- 61
2019-03-25 03:00:00 8.6 26 Este 48 Sudeste 0 -- -- 61
2019-03-25 02:00:00 8.6 32 Este 44 Este 0 -- -- 63
2019-03-25 01:00:00 8.9 26 Este 36 Este 0 -- -- 65
2019-03-25 00:00:00 10.3 25 Este 36 Este 0 -- -- 61
2019-03-24 23:00:00 10.8 26 Este 36 Este 0 -- -- 64
2019-03-24 22:00:00 10.2 23 Este 27 Este 0 -- -- 60
2019-03-24 21:00:00 10.3 16 Este 21 Este 0 -- -- 53
2019-03-24 20:00:00 13.2 14 Este 21 Este 0 -- -- 44
2019-03-24 19:00:00 18.8 19 Este 28 Este 0 -- -- 29
2019-03-24 18:00:00 20.8 19 Este 30 Sudeste 0 -- -- 18
2019-03-24 17:00:00 21.5 19 Sudeste 39 Sudeste 0 -- -- 21
2019-03-24 16:00:00 21.2 18 Este 34 Este 0 -- -- 23
2019-03-24 15:00:00 20.8 17 Este 35 Este 0 -- -- 27
2019-03-24 14:00:00 20.2 17 Este 31 Sudeste 0 -- -- 31
2019-03-24 13:00:00 19.3 14 Sudeste 26 Este 0 -- -- 38
2019-03-24 12:00:00 17.2 13 Nordeste 21 Nordeste 0 -- -- 42
2019-03-24 11:00:00 15.7 3 Noroeste 8 Sudeste 0 -- -- 50
2019-03-24 10:00:00 11.4 3 Este 10 Este 0 -- -- 57
2019-03-24 09:00:00 7.5 3 Sur 15 Este 0 -- -- 66
2019-03-24 08:00:00 4.4 9 Este 18 Este 0 -- -- 75
2019-03-24 07:00:00 4.4 14 Este 17 Este 0 -- -- 75
2019-03-24 06:00:00 4.3 10 Este 14 Nordeste 0 -- -- 75
2019-03-24 05:00:00 4.9 8 Este 13 Este 0 -- -- 71
2019-03-24 04:00:00 7.9 5 Este 12 Este 0 -- -- 60
2019-03-24 03:00:00 7.3 9 Este 16 Sudeste 0 -- -- 62
2019-03-24 02:00:00 8.7 11 Sudeste 16 Sudeste 0 -- -- 57
2019-03-24 01:00:00 10 7 Este 12 Nordeste 0 -- -- 54
2019-03-24 00:00:00 8.5 0 Calma 15 Este 0 -- -- 62
2019-03-23 23:00:00 10.4 12 Este 27 Este 0 -- -- 56
2019-03-23 22:00:00 10.4 21 Este 24 Este 0 -- -- 56
2019-03-23 21:00:00 11.3 16 Este 18 Este 0 -- -- 56
2019-03-23 20:00:00 13.1 13 Este 17 Este 0 -- -- 48
2019-03-23 19:00:00 18 12 Este 23 Este 0 -- -- 34
2019-03-23 18:00:00 20 16 Este 27 Este 0 -- -- 28
2019-03-23 17:00:00 20.6 12 Este 30 Sudeste 0 -- -- 30
2019-03-23 16:00:00 20 13 Este 26 Este 0 -- -- 32
2019-03-23 15:00:00 20.6 14 Sudeste 32 Sudeste 0 -- -- 32
2019-03-23 14:00:00 19.3 9 Sudeste 26 Sudeste 0 -- -- 32
2019-03-23 13:00:00 18 9 Sudeste 18 Sudeste 0 -- -- 38
2019-03-23 12:00:00 15.4 10 Sudeste 18 Sudeste 0 -- -- 48
2019-03-23 11:00:00 12.7 10 Sudeste 17 Sudeste 0 -- -- 52
2019-03-23 10:00:00 10.1 8 Sudeste 15 Sudeste 0 -- -- 60
2019-03-23 09:00:00 4.7 6 Este 10 Este 0 -- -- 71
2019-03-23 08:00:00 1.8 5 Este 8 Este 0 -- -- 77
2019-03-23 07:00:00 0.9 3 Este 8 Este 0 -- -- 81
2019-03-23 06:00:00 1.2 4 Este 8 Este 0 -- -- 77
2019-03-23 05:00:00 1.7 4 Este 8 Este 0 -- -- 75
2019-03-23 04:00:00 2.5 5 Este 7 Este 0 -- -- 71
2019-03-23 03:00:00 4.1 4 Sudeste 12 Sudeste 0 -- -- 65
2019-03-23 02:00:00 3.8 3 Este 15 Este 0 -- -- 66
2019-03-23 01:00:00 5.6 15 Este 17 Este 0 -- -- 60
2019-03-23 00:00:00 5.9 14 Este 18 Este 0 -- -- 59
2019-03-22 23:00:00 6 17 Este 18 Este 0 -- -- 59
2019-03-22 22:00:00 7.7 15 Este 17 Este 0 -- -- 54
2019-03-22 21:00:00 8.5 12 Este 17 Este 0 -- -- 54
2019-03-22 20:00:00 10.9 9 Este 16 Nordeste 0 -- -- 45
2019-03-22 19:00:00 16 8 Este 16 Sudeste 0 -- -- 34
2019-03-22 18:00:00 17.2 10 Este 16 Este 0 -- -- 30
2019-03-22 17:00:00 18.8 10 Sudeste 18 Sudeste 0 -- -- 27
2019-03-22 16:00:00 18.2 6 Sudeste 19 Nordeste 0 -- -- 29
2019-03-22 15:00:00 17 7 Nordeste 17 Sudeste 0 -- -- 32
2019-03-22 14:00:00 16.8 5 Este 13 Este 0 -- -- 33
2019-03-22 13:00:00 15.6 4 Sudeste 10 Este 0 -- -- 39
2019-03-22 12:00:00 13 4 Sur 8 Sudeste 0 -- -- 46
2019-03-22 11:00:00 9.4 4 Sudeste 10 Sudeste 0 -- -- 53
2019-03-22 10:00:00 6.6 6 Sudeste 9 Sudeste 0 -- -- 60
2019-03-22 09:00:00 2.2 4 Sur 10 Este 0 -- -- 79
2019-03-22 08:00:00 -0.5 8 Este 12 Este 0 -- -- 86
2019-03-22 07:00:00 -1.3 10 Este 13 Este 0 -- -- 88
2019-03-22 06:00:00 0 5 Este 6 Nordeste 0 -- -- 85
2019-03-22 05:00:00 0.7 2 Este 4 Sudeste 0 -- -- 83
2019-03-22 04:00:00 0.8 2 Sudeste 11 Este 0 -- -- 82
2019-03-22 03:00:00 1.7 12 Este 15 Este 0 -- -- 79
2019-03-22 02:00:00 2.5 13 Este 15 Este 0 -- -- 76
2019-03-22 01:00:00 2.9 7 Este 13 Este 0 -- -- 73
2019-03-22 00:00:00 2.6 10 Este 14 Este 0 -- -- 73
2019-03-21 23:00:00 2.3 9 Este 20 Este 0 -- -- 72
2019-03-21 22:00:00 5 9 Este 11 Este 0 -- -- 62
2019-03-21 21:00:00 7.4 8 Este 10 Este 0 -- -- 52
2019-03-21 20:00:00 9.7 4 Sudeste 14 Sudeste 0 -- -- 42
2019-03-21 19:00:00 14.8 5 Sur 14 Sudeste 0 -- -- 34
2019-03-21 18:00:00 15.5 7 Este 19 Nordeste 0 -- -- 33
2019-03-21 17:00:00 14.9 10 Nordeste 21 Nordeste 0 -- -- 36
2019-03-21 16:00:00 14.7 10 Norte 21 Nordeste 0 -- -- 38
2019-03-21 15:00:00 14.8 8 Este 17 Este 0 -- -- 37
2019-03-21 14:00:00 13.8 7 Sudeste 22 Este 0 -- -- 41
2019-03-21 13:00:00 12.6 6 Este 18 Este 0 -- -- 44
2019-03-21 12:00:00 11.1 7 Este 18 Este 0 -- -- 42
2019-03-21 11:00:00 9.3 11 Sudeste 21 Este 0 -- -- 49
2019-03-21 10:00:00 6.6 15 Sudeste 25 Este 0 -- -- 63
2019-03-21 09:00:00 3.1 14 Este 20 Este 0 -- -- 81
2019-03-21 08:00:00 0.2 14 Este 22 Este 0 -- -- 88
2019-03-21 07:00:00 -0.4 14 Este 19 Sudeste 0 -- -- 88
2019-03-21 06:00:00 -1.9 5 Este 15 Este 0 -- -- 90
2019-03-21 05:00:00 -1.4 8 Este 15 Este 0 -- -- 85
2019-03-21 04:00:00 -0.7 4 Norte 12 Este 0 -- -- 84
2019-03-21 03:00:00 1.4 9 Este 22 Sudeste 0 -- -- 77
2019-03-21 02:00:00 2.9 19 Este 39 Este 0 -- -- 69
2019-03-21 01:00:00 3.3 24 Este 38 Este 0 -- -- 64
2019-03-21 00:00:00 4.3 27 Este 36 Este 0 -- -- 58
2019-03-20 23:00:00 4.4 24 Este 33 Este 0 -- -- 62
2019-03-20 22:00:00 5.5 24 Este 31 Este 0 -- -- 55
2019-03-20 21:00:00 6.8 24 Este 33 Este 0 -- -- 53
2019-03-20 20:00:00 8.4 17 Este 30 Sudeste 0 -- -- 50
2019-03-20 19:00:00 11.6 26 Sudeste 36 Sudeste 0 -- -- 38
2019-03-20 18:00:00 13 27 Sudeste 39 Sudeste 0 -- -- 36
2019-03-20 17:00:00 13.5 21 Sudeste 39 Este 0 -- -- 36
2019-03-20 16:00:00 13.3 27 Sudeste 42 Este 0 -- -- 35
2019-03-20 15:00:00 13.3 24 Sudeste 40 Sudeste 0 -- -- 40
2019-03-20 14:00:00 12.7 22 Este 45 Este 0 -- -- 45
2019-03-20 13:00:00 11.7 26 Este 40 Este 0 -- -- 50
2019-03-20 12:00:00 8.7 26 Este 39 Este 0 -- -- 60
2019-03-20 11:00:00 7.5 25 Sudeste 37 Sudeste 0 -- -- 65
2019-03-20 10:00:00 6.7 21 Sudeste 31 Este 0 -- -- 74
2019-03-20 09:00:00 3.5 5 Este 8 Nordeste 0 -- -- 83
2019-03-20 08:00:00 0.7 7 Este 10 Este 0 -- -- 93
2019-03-20 07:00:00 -0.1 8 Este 13 Este 0 -- -- 92
2019-03-20 06:00:00 0 0 Calma 9 Este 0 -- -- 93
2019-03-20 05:00:00 2.8 9 Sudeste 20 Sudeste 0 -- -- 84
2019-03-20 04:00:00 2.9 15 Sudeste 23 Sudeste 0 -- -- 86
2019-03-20 03:00:00 2.7 12 Sudeste 18 Este 0 -- -- 88
2019-03-20 02:00:00 3 13 Sudeste 21 Sudeste 0 -- -- 85
2019-03-20 01:00:00 2.4 7 Sudeste 17 Sudeste 0 -- -- 85
2019-03-20 00:00:00 4 8 Sur 26 Este 0 -- -- 80
2019-03-19 23:00:00 5.5 15 Este 36 Este 0 -- -- 75
2019-03-19 22:00:00 6.9 29 Este 38 Este 0 -- -- 68
2019-03-19 21:00:00 7.6 18 Sudeste 32 Sudeste 0 -- -- 65
2019-03-19 20:00:00 8.9 22 Sudeste 32 Sudeste 0 -- -- 60
2019-03-19 19:00:00 12.1 24 Este 35 Este 0 -- -- 49
2019-03-19 18:00:00 14 21 Este 33 Este 0 -- -- 44
2019-03-19 17:00:00 14.9 17 Este 28 Nordeste 0 -- -- 41
2019-03-19 16:00:00 15 12 Este 22 Nordeste 0 -- -- 43
2019-03-19 15:00:00 12.8 7 Nordeste 24 Este 0 -- -- 48
2019-03-19 14:00:00 13 10 Nordeste 22 Este 0 -- -- 49
2019-03-19 13:00:00 11.6 10 Nordeste 22 Nordeste 0 -- -- 52
2019-03-19 12:00:00 10.6 6 Este 16 Este 0 -- -- 53
2019-03-19 11:00:00 8.9 11 Nordeste 19 Nordeste 0 -- -- 62
2019-03-19 10:00:00 7.2 5 Este 9 Este 0 -- -- 66
2019-03-19 09:00:00 4.1 6 Este 13 Nordeste 0 -- -- 80
2019-03-19 08:00:00 1 9 Este 11 Este 0 -- -- 89
2019-03-19 07:00:00 1.3 6 Este 8 Este 0 -- -- 87
2019-03-19 06:00:00 2.3 5 Este 6 Este 0 -- -- 83
2019-03-19 05:00:00 2.6 3 Nordeste 5 Este 0 -- -- 82
2019-03-19 04:00:00 2 4 Este 8 Este 0 -- -- 82
2019-03-19 03:00:00 2.3 5 Este 9 Este 0 -- -- 78
2019-03-19 02:00:00 3.7 9 Este 20 Sudeste 0 -- -- 73
2019-03-19 01:00:00 3.9 12 Este 19 Sudeste 0 -- -- 71
2019-03-19 00:00:00 4.5 12 Este 23 Sudeste 0 -- -- 68